Time;durP1;ratioP1;P1;durP2;ratioP2;P2;SDS_P1;SDS_P2;PMS_P1;PMS_P2;Temp;Humidity;BMP_temperature;BMP_pressure;BME280_temperature;BME280_humidity;BME280_pressure;Samples;Min_cycle;Max_cycle;Signal;HPM_P1;HPM_P2
2023/01/11 00:01:01;;;;;;;40.20;20.30;;;;;;;3.43;91.22;100931.81;108965;1273;36194;-74
2023/01/11 00:03:39;;;;;;;39.80;21.90;;;;;;;3.41;90.84;100931.13;108962;1255;37322;-75
2023/01/11 00:06:19;;;;;;;42.50;21.50;;;;;;;3.40;90.95;100931.14;108952;1254;37199;-75
2023/01/11 00:08:56;;;;;;;41.60;19.80;;;;;;;3.41;91.33;100928.55;108923;1254;37068;-73
2023/01/11 00:11:30;;;;;;;35.10;18.70;;;;;;;3.42;91.13;100926.30;108933;1251;37270;-73
2023/01/11 00:14:08;;;;;;;40.30;21.40;;;;;;;3.43;91.10;100927.67;108797;1264;175112;-73
2023/01/11 00:16:45;;;;;;;40.20;21.40;;;;;;;3.46;91.32;100927.69;108861;1262;37388;-77
2023/01/11 00:19:20;;;;;;;43.80;21.80;;;;;;;3.51;91.43;100931.14;108873;1273;37111;-77
2023/01/11 00:22:00;;;;;;;42.40;22.00;;;;;;;3.53;91.39;100934.58;108908;1273;37122;-76
2023/01/11 00:24:37;;;;;;;41.50;20.90;;;;;;;3.52;91.36;100933.02;108904;1260;38902;-76
2023/01/11 00:27:19;;;;;;;39.90;21.00;;;;;;;3.51;91.20;100937.52;108874;1264;36188;-76
2023/01/11 00:29:55;;;;;;;38.00;19.50;;;;;;;3.53;91.69;100932.67;108899;1263;37293;-77
2023/01/11 00:32:33;;;;;;;45.90;21.30;;;;;;;3.56;91.53;100931.65;108882;1273;38230;-74
2023/01/11 00:35:10;;;;;;;38.80;20.90;;;;;;;3.56;91.33;100932.17;108927;1256;38303;-72
2023/01/11 00:37:47;;;;;;;44.10;21.90;;;;;;;3.59;91.68;100922.16;108915;1254;36902;-75
2023/01/11 00:40:25;;;;;;;43.00;20.40;;;;;;;3.60;91.53;100924.05;108852;1273;37268;-75
2023/01/11 00:48:52;;;;;;;39.90;21.10;;;;;;;3.62;91.55;100927.66;108906;1267;36971;-76
2023/01/11 00:51:29;;;;;;;41.40;21.40;;;;;;;3.63;91.55;100935.77;108936;1258;36902;-78
2023/01/11 00:54:06;;;;;;;46.00;21.10;;;;;;;3.66;91.70;100943.38;108922;1254;36977;-78
2023/01/11 00:56:42;;;;;;;39.30;19.20;;;;;;;3.66;91.56;100947.69;108883;1273;37261;-75
2023/01/11 00:59:21;;;;;;;34.30;17.00;;;;;;;3.64;91.60;100949.77;108923;1250;36994;-75
2023/01/11 01:01:56;;;;;;;39.20;19.70;;;;;;;3.63;91.60;100949.24;108920;1273;36977;-77
2023/01/11 01:04:34;;;;;;;35.80;19.10;;;;;;;3.65;91.72;100949.40;108898;1273;38355;-74
2023/01/11 01:07:10;;;;;;;39.50;19.20;;;;;;;3.67;91.93;100952.00;108883;1256;37119;-77
2023/01/11 01:09:45;;;;;;;39.30;19.90;;;;;;;3.67;92.06;100959.94;108935;1263;37440;-75
2023/01/11 01:15:13;;;;;;;37.60;20.30;;;;;;;3.70;92.02;100955.64;108923;1273;36994;-77
2023/01/11 01:17:48;;;;;;;42.50;20.60;;;;;;;3.73;92.02;100955.77;108876;1255;37106;-77
2023/01/11 01:20:23;;;;;;;41.60;20.80;;;;;;;3.77;92.31;100955.96;108871;1255;37443;-74
2023/01/11 01:22:58;;;;;;;47.50;19.90;;;;;;;3.77;91.95;100954.23;108871;1273;36947;-76
2023/01/11 01:25:36;;;;;;;38.00;18.90;;;;;;;3.75;91.83;100954.41;108733;1258;174530;-74
2023/01/11 01:28:13;;;;;;;38.50;19.70;;;;;;;3.74;91.80;100951.99;108877;1251;37132;-74
2023/01/11 01:30:56;;;;;;;39.10;20.80;;;;;;;3.74;91.93;100951.13;108878;1251;38528;-74
2023/01/11 01:33:32;;;;;;;40.70;20.90;;;;;;;3.76;92.26;100959.25;108853;1273;36125;-73
2023/01/11 01:36:11;;;;;;;42.40;22.40;;;;;;;3.77;92.12;100961.48;108870;1273;37198;-75
2023/01/11 01:38:49;;;;;;;40.80;20.30;;;;;;;3.75;92.06;100958.56;108779;1262;36946;-75
2023/01/11 01:41:25;;;;;;;39.90;20.70;;;;;;;3.76;92.22;100961.32;108885;1251;37280;-74
2023/01/11 01:44:03;;;;;;;39.60;20.00;;;;;;;3.81;92.55;100958.90;108837;1264;37098;-75
2023/01/11 01:46:37;;;;;;;40.30;20.70;;;;;;;3.85;92.69;100956.65;108822;1274;36281;-77
2023/01/11 01:49:13;;;;;;;42.10;20.90;;;;;;;3.88;92.28;100960.61;108798;1253;36672;-76
2023/01/11 01:51:50;;;;;;;47.60;22.80;;;;;;;3.89;92.31;100961.81;108824;1251;37195;-77
2023/01/11 01:54:30;;;;;;;40.50;20.70;;;;;;;3.89;92.60;100961.64;108775;1262;36923;-75
2023/01/11 01:57:10;;;;;;;43.40;22.30;;;;;;;3.89;92.11;100961.13;108834;1264;36081;-77
2023/01/11 01:59:50;;;;;;;43.20;20.30;;;;;;;3.87;92.32;100960.95;108823;1274;36992;-76
2023/01/11 02:02:27;;;;;;;38.30;20.60;;;;;;;3.94;92.49;100958.02;108836;1270;37729;-77
2023/01/11 02:05:07;;;;;;;42.30;22.30;;;;;;;3.96;92.43;100956.97;108809;1263;38227;-74
2023/01/11 02:07:45;;;;;;;42.40;20.60;;;;;;;3.95;92.59;100955.95;108803;1274;37192;-76
2023/01/11 02:10:21;;;;;;;38.50;19.50;;;;;;;3.95;92.45;100952.66;108808;1274;37098;-76
2023/01/11 02:13:05;;;;;;;41.00;20.50;;;;;;;3.94;92.46;100950.42;108787;1265;37559;-74
2023/01/11 02:15:39;;;;;;;42.50;20.60;;;;;;;3.96;92.43;100948.35;108785;1274;37230;-77
2023/01/11 02:18:17;;;;;;;40.80;20.90;;;;;;;3.97;92.49;100949.20;108776;1256;37212;-76
2023/01/11 02:21:05;;;;;;;49.90;22.20;;;;;;;3.97;92.50;100947.98;108891;1255;37317;-74
2023/01/11 02:24:30;;;;;;;44.90;22.20;;;;;;;3.97;92.57;100945.41;108913;1274;37069;-74
2023/01/11 02:27:29;;;;;;;37.40;20.20;;;;;;;3.97;92.63;100945.92;108496;1278;36867;-74
2023/01/11 02:30:09;;;;;;;;;;;;;;;3.98;92.74;100945.73;108897;1274;37320;-75
2023/01/11 02:32:50;;;;;;;38.50;19.60;;;;;;;3.98;92.92;100947.98;108820;1272;37128;-76
2023/01/11 02:35:35;;;;;;;39.50;20.70;;;;;;;3.99;92.91;100946.80;108827;1255;37411;-77
2023/01/11 02:38:15;;;;;;;40.70;22.30;;;;;;;4.02;92.77;100942.11;108857;1274;37107;-77
2023/01/11 02:40:59;;;;;;;44.50;23.90;;;;;;;4.04;92.80;100941.42;108798;1257;37385;-73
2023/01/11 02:46:39;;;;;;;39.00;21.10;;;;;;;4.05;92.80;100941.43;108781;1274;38323;-77
2023/01/11 02:49:31;;;;;;;39.30;21.50;;;;;;;4.10;92.94;100933.30;108745;1268;36996;-76
2023/01/11 02:52:16;;;;;;;49.50;23.10;;;;;;;4.09;92.67;100933.98;108843;1256;37311;-74
2023/01/11 02:54:55;;;;;;;43.30;21.60;;;;;;;4.07;92.48;100936.06;108839;1274;37475;-72
2023/01/11 02:57:36;;;;;;;46.10;23.30;;;;;;;4.07;92.61;100936.75;108886;1274;37538;-75
2023/01/11 03:00:23;;;;;;;42.60;22.60;;;;;;;4.09;93.01;100939.70;108882;1251;36990;-74
2023/01/11 03:03:26;;;;;;;35.00;19.70;;;;;;;4.12;93.08;100945.03;108881;1274;37086;-73
2023/01/11 03:06:03;;;;;;;40.30;22.50;;;;;;;4.13;92.76;100944.33;108890;1274;37378;-73
2023/01/11 03:09:19;;;;;;;44.10;24.20;;;;;;;4.16;92.92;100938.29;108798;1260;37092;-73
2023/01/11 03:15:09;;;;;;;43.80;23.30;;;;;;;4.18;92.57;100937.42;108914;1274;36385;-79
2023/01/11 03:17:56;;;;;;;43.20;23.00;;;;;;;4.16;92.73;100938.63;108791;1274;36965;-77
2023/01/11 03:20:34;;;;;;;38.20;20.20;;;;;;;4.18;92.68;100944.33;108823;1253;39173;-74
2023/01/11 03:23:15;;;;;;;38.40;21.50;;;;;;;4.18;92.52;100943.64;108850;1264;37244;-75
2023/01/11 03:25:58;;;;;;;39.00;22.90;;;;;;;4.18;92.93;100945.88;108804;1253;37146;-75
2023/01/11 03:28:37;;;;;;;40.00;22.70;;;;;;;4.21;92.85;100942.95;108809;1274;37321;-76
2023/01/11 03:31:17;;;;;;;46.40;23.60;;;;;;;4.20;92.78;100942.08;108845;1265;36031;-74
2023/01/11 03:33:59;;;;;;;47.00;25.90;;;;;;;4.17;93.06;100941.56;108831;1274;37404;-75
2023/01/11 03:36:35;;;;;;;35.60;20.10;;;;;;;4.18;92.67;100939.48;108886;1274;37322;-76
2023/01/11 03:39:13;;;;;;;37.40;22.00;;;;;;;4.18;92.87;100936.55;108790;1265;37080;-76
2023/01/11 03:41:47;;;;;;;38.50;21.50;;;;;;;4.21;92.95;100932.40;108839;1274;36532;-77
2023/01/11 03:44:21;;;;;;;42.60;26.00;;;;;;;4.22;92.93;100926.70;108819;1264;36957;-77
2023/01/11 03:46:58;;;;;;;42.70;20.60;;;;;;;4.25;92.95;100922.04;108882;1254;37041;-75
2023/01/11 03:49:36;;;;;;;39.90;22.50;;;;;;;4.21;92.70;100923.77;108845;1264;37097;-75
2023/01/11 03:52:16;;;;;;;39.10;21.70;;;;;;;4.20;92.83;100922.05;108802;1274;38097;-76
2023/01/11 03:54:55;;;;;;;33.40;19.50;;;;;;;4.21;92.65;100925.66;108804;1274;36389;-78
2023/01/11 03:57:31;;;;;;;36.20;22.10;;;;;;;4.23;92.58;100926.18;108824;1274;37058;-77
2023/01/11 04:00:07;;;;;;;41.60;24.10;;;;;;;4.23;92.91;100928.59;108801;1264;37221;-79
2023/01/11 04:02:42;;;;;;;44.40;23.90;;;;;;;4.25;92.71;100927.73;108791;1253;37376;-77
2023/01/11 04:05:20;;;;;;;39.80;21.30;;;;;;;4.25;92.79;100930.32;108849;1253;36635;-74
2023/01/11 04:07:54;;;;;;;36.00;21.40;;;;;;;4.25;92.75;100931.70;108845;1274;37005;-73
2023/01/11 04:10:28;;;;;;;32.80;19.50;;;;;;;4.24;92.75;100926.18;108839;1256;36152;-75
2023/01/11 04:13:04;;;;;;;37.90;23.00;;;;;;;4.18;92.20;100927.40;108820;1274;37113;-75
2023/01/11 04:15:40;;;;;;;40.20;22.70;;;;;;;4.16;92.52;100922.22;108821;1255;37148;-78
2023/01/11 04:18:14;;;;;;;46.50;24.80;;;;;;;4.19;92.79;100919.96;108815;1263;36892;-78
2023/01/11 04:20:49;;;;;;;41.90;23.50;;;;;;;4.22;92.79;100921.34;108823;1274;37014;-77
2023/01/11 04:23:26;;;;;;;39.10;21.40;;;;;;;4.21;92.62;100920.14;108800;1253;37131;-77
2023/01/11 04:26:04;;;;;;;39.00;21.70;;;;;;;4.21;92.74;100919.44;108849;1259;36663;-73
2023/01/11 04:28:39;;;;;;;43.30;23.50;;;;;;;4.24;92.75;100917.89;108872;1253;38232;-73
2023/01/11 04:31:14;;;;;;;37.90;24.00;;;;;;;4.22;92.35;100923.42;108853;1253;37089;-73
2023/01/11 04:33:49;;;;;;;45.20;23.70;;;;;;;4.19;92.60;100920.84;108905;1274;38268;-72
2023/01/11 04:36:24;;;;;;;40.70;22.50;;;;;;;4.20;92.79;100916.00;108825;1262;37071;-76
2023/01/11 04:39:02;;;;;;;33.40;19.60;;;;;;;4.22;92.80;100916.52;108770;1274;37309;-76
2023/01/11 04:44:34;;;;;;;35.00;19.40;;;;;;;4.24;92.62;100917.73;108873;1274;36142;-75
2023/01/11 04:47:09;;;;;;;41.40;23.70;;;;;;;4.25;92.92;100914.61;108776;1252;37645;-77
2023/01/11 04:49:46;;;;;;;39.30;20.70;;;;;;;4.25;92.54;100919.27;108817;1263;37142;-74
2023/01/11 04:52:25;;;;;;;44.30;22.50;;;;;;;4.15;92.17;100921.19;108783;1274;37102;-76
2023/01/11 04:55:02;;;;;;;38.90;20.90;;;;;;;4.10;92.22;100917.41;108836;1274;38547;-74
2023/01/11 04:57:36;;;;;;;36.60;20.80;;;;;;;4.11;92.68;100918.44;108896;1274;36983;-75
2023/01/11 05:00:14;;;;;;;38.20;22.30;;;;;;;4.12;93.10;100919.47;108923;1261;37194;-75
2023/01/11 05:02:56;;;;;;;43.00;22.20;;;;;;;4.11;92.27;100924.15;108943;1274;37118;-75
2023/01/11 05:05:33;;;;;;;40.70;20.90;;;;;;;4.10;92.65;100923.80;108880;1263;37034;-75
2023/01/11 05:08:07;;;;;;;33.60;19.00;;;;;;;4.12;92.75;100927.25;108802;1260;37111;-75
2023/01/11 05:10:42;;;;;;;36.40;20.20;;;;;;;4.05;92.48;100926.23;108807;1255;37159;-76
2023/01/11 05:13:19;;;;;;;40.30;22.20;;;;;;;4.05;92.63;100925.73;108837;1255;36293;-77
2023/01/11 05:15:53;;;;;;;37.70;21.30;;;;;;;4.07;92.91;100919.83;108776;1263;38578;-76
2023/01/11 05:18:30;;;;;;;38.70;20.90;;;;;;;4.09;93.07;100922.25;108792;1274;36425;-76
2023/01/11 05:21:06;;;;;;;39.30;19.70;;;;;;;4.09;92.98;100928.63;108760;1253;37129;-74
2023/01/11 05:23:44;;;;;;;35.10;18.40;;;;;;;4.10;92.74;100931.59;108835;1274;37118;-74
2023/01/11 05:26:23;;;;;;;37.90;18.90;;;;;;;4.08;92.90;100932.27;108862;1274;37306;-77
2023/01/11 05:29:02;;;;;;;31.80;17.60;;;;;;;4.11;93.01;100933.81;108730;1257;37239;-77
2023/01/11 05:31:38;;;;;;;34.10;17.50;;;;;;;4.09;92.81;100935.02;108854;1274;37100;-75
2023/01/11 05:34:16;;;;;;;33.80;17.30;;;;;;;4.05;92.81;100931.92;108873;1255;37076;-74
2023/01/11 05:36:51;;;;;;;37.40;18.50;;;;;;;4.03;92.81;100926.57;108873;1264;36991;-73
2023/01/11 05:39:26;;;;;;;29.90;16.40;;;;;;;4.05;92.98;100922.79;108903;1253;36033;-74
2023/01/11 05:42:06;;;;;;;29.10;16.50;;;;;;;4.05;92.81;100916.22;108854;1255;37003;-75
2023/01/11 05:47:32;;;;;;;28.50;15.80;;;;;;;4.05;92.93;100916.55;108799;1274;37179;-74
2023/01/11 05:50:11;;;;;;;32.10;16.60;;;;;;;4.03;92.80;100912.94;108864;1271;36968;-79
2023/01/11 05:52:46;;;;;;;31.00;16.60;;;;;;;4.02;92.51;100908.45;108790;1255;37466;-78
2023/01/11 05:55:26;;;;;;;28.20;15.80;;;;;;;4.02;92.86;100903.79;108861;1255;37777;-74
2023/01/11 05:58:04;;;;;;;27.50;15.70;;;;;;;4.02;92.81;100904.82;108749;1256;36593;-75
2023/01/11 06:00:52;;;;;;;27.80;15.70;;;;;;;4.02;92.81;100901.55;108854;1263;37299;-74
2023/01/11 06:03:34;;;;;;;30.80;15.90;;;;;;;4.02;92.97;100894.98;108853;1257;36236;-74
2023/01/11 06:06:13;;;;;;;28.80;15.20;;;;;;;4.00;92.88;100896.89;108838;1262;36120;-72
2023/01/11 06:08:50;;;;;;;29.40;15.00;;;;;;;3.99;92.64;100898.80;108820;1252;36997;-73
2023/01/11 06:11:49;;;;;;;28.70;14.70;;;;;;;3.98;92.94;100899.48;108887;1268;37217;-74
2023/01/11 06:14:26;;;;;;;29.00;15.50;;;;;;;3.99;93.00;100898.11;108816;1252;37124;-77
2023/01/11 06:17:02;;;;;;;32.00;16.50;;;;;;;4.00;92.91;100901.55;108812;1255;36215;-75
2023/01/11 06:19:37;;;;;;;31.80;16.50;;;;;;;4.02;92.94;100894.98;108808;1274;38368;-76
2023/01/11 06:22:12;;;;;;;30.60;15.80;;;;;;;4.03;92.99;100894.28;108851;1274;37455;-75
2023/01/11 06:24:50;;;;;;;30.80;15.30;;;;;;;4.01;93.01;100895.34;108821;1255;36978;-73
2023/01/11 06:27:24;;;;;;;28.40;14.90;;;;;;;3.98;92.81;100896.89;108867;1263;37131;-75
2023/01/11 06:30:02;;;;;;;31.30;17.30;;;;;;;3.97;92.66;100893.11;108793;1261;37229;-75
2023/01/11 06:32:42;;;;;;;33.20;16.90;;;;;;;3.94;92.88;100893.97;108783;1253;36182;-76
2023/01/11 06:35:19;;;;;;;32.10;16.80;;;;;;;3.95;92.80;100896.05;108810;1272;37097;-75
2023/01/11 06:37:53;;;;;;;33.90;16.80;;;;;;;3.95;92.99;100893.12;108907;1255;36963;-74
2023/01/11 06:40:27;;;;;;;35.90;18.10;;;;;;;3.95;92.99;100891.05;108785;1260;37108;-76
2023/01/11 06:43:04;;;;;;;35.70;18.60;;;;;;;3.98;93.18;100890.33;108515;1263;541695;-74
2023/01/11 06:45:43;;;;;;;39.70;19.20;;;;;;;3.98;93.05;100886.02;108951;1265;36414;-72
2023/01/11 06:48:17;;;;;;;35.30;18.40;;;;;;;3.98;93.16;100887.23;108819;1253;36037;-74
2023/01/11 06:50:58;;;;;;;37.00;18.80;;;;;;;3.98;93.15;100889.82;108759;1256;37213;-75
2023/01/11 06:53:36;;;;;;;36.60;17.90;;;;;;;3.99;93.01;100889.13;108875;1264;36984;-78
2023/01/11 06:56:15;;;;;;;35.40;19.10;;;;;;;4.02;93.26;100891.53;108756;1274;37098;-77
2023/01/11 06:58:54;;;;;;;40.70;19.80;;;;;;;4.02;93.23;100888.60;108721;1258;37626;-77
2023/01/11 07:01:31;;;;;;;40.40;19.40;;;;;;;4.01;93.01;100890.85;108785;1274;37038;-76
2023/01/11 07:04:05;;;;;;;42.50;20.20;;;;;;;3.97;92.75;100893.10;108793;1274;35996;-76
2023/01/11 07:06:40;;;;;;;36.30;19.40;;;;;;;3.94;92.89;100897.26;108809;1274;175009;-73
2023/01/11 07:09:17;;;;;;;39.90;19.00;;;;;;;3.95;93.05;100895.02;108862;1255;37002;-73
2023/01/11 07:11:54;;;;;;;35.00;18.40;;;;;;;3.97;93.08;100896.73;108882;1259;37004;-72
2023/01/11 07:14:32;;;;;;;35.30;18.20;;;;;;;4.00;93.05;100894.83;108698;1255;175002;-77
2023/01/11 07:17:11;;;;;;;34.70;18.00;;;;;;;4.03;93.24;100895.15;108812;1267;37053;-75
2023/01/11 07:19:48;;;;;;;38.10;19.70;;;;;;;4.03;92.90;100896.37;108915;1255;36049;-78
2023/01/11 07:22:24;;;;;;;36.20;19.00;;;;;;;4.00;92.77;100896.20;108729;1268;172868;-78
2023/01/11 07:24:59;;;;;;;35.30;17.80;;;;;;;4.00;92.69;100890.68;108847;1274;37198;-75
2023/01/11 07:27:33;;;;;;;31.80;17.30;;;;;;;4.02;93.17;100888.95;108836;1274;37255;-78
2023/01/11 07:30:13;;;;;;;27.00;15.90;;;;;;;4.06;92.97;100889.63;108827;1256;37144;-74
2023/01/11 07:32:47;;;;;;;26.50;15.90;;;;;;;4.06;92.47;100893.41;108807;1253;37140;-75
2023/01/11 07:35:22;;;;;;;28.80;16.10;;;;;;;4.03;92.31;100893.60;108864;1256;37340;-75
2023/01/11 07:37:56;;;;;;;27.10;14.50;;;;;;;4.01;92.35;100893.27;108942;1255;37129;-74
2023/01/11 07:40:35;;;;;;;28.90;13.80;;;;;;;3.97;92.11;100890.70;108857;1256;37923;-76
2023/01/11 07:43:18;;;;;;;23.60;12.30;;;;;;;3.97;91.96;100895.52;108807;1274;36970;-77
2023/01/11 07:45:59;;;;;;;22.80;12.40;;;;;;;3.93;91.77;100896.23;108803;1274;37089;-77
2023/01/11 07:48:38;;;;;;;20.30;12.40;;;;;;;3.90;91.62;100893.29;108837;1253;38289;-77
2023/01/11 07:51:15;;;;;;;23.10;12.40;;;;;;;3.88;91.93;100890.19;108818;1256;37065;-75
2023/01/11 07:53:52;;;;;;;24.90;12.60;;;;;;;3.84;91.61;100889.86;108781;1274;37104;-74
2023/01/11 07:56:29;;;;;;;22.70;13.60;;;;;;;3.79;91.60;100892.96;108812;1264;37054;-76
2023/01/11 07:59:05;;;;;;;22.20;12.60;;;;;;;3.78;91.61;100897.80;108813;1274;36994;-77
2023/01/11 08:01:39;;;;;;;22.50;13.70;;;;;;;3.82;92.14;100896.94;108858;1259;36993;-73
2023/01/11 08:04:15;;;;;;;26.00;13.70;;;;;;;3.83;91.76;100895.20;108894;1263;37090;-74
2023/01/11 08:06:50;;;;;;;23.80;13.60;;;;;;;3.84;92.21;100892.63;108801;1255;36979;-77
2023/01/11 08:09:26;;;;;;;24.70;13.70;;;;;;;3.87;92.02;100889.67;108808;1255;38534;-76
2023/01/11 08:14:52;;;;;;;25.60;13.10;;;;;;;4.04;92.67;100885.31;108737;1265;37004;-74
2023/01/11 08:17:27;;;;;;;26.90;15.10;;;;;;;4.14;92.57;100885.96;108773;1271;37653;-74
2023/01/11 08:20:02;;;;;;;26.00;14.20;;;;;;;4.20;92.10;100883.19;108762;1256;36994;-75
2023/01/11 08:22:38;;;;;;;28.10;14.60;;;;;;;4.19;91.78;100877.66;108818;1255;36624;-76
2023/01/11 08:25:17;;;;;;;27.00;14.40;;;;;;;4.19;91.69;100877.49;108842;1257;37178;-72
2023/01/11 08:27:55;;;;;;;26.10;14.80;;;;;;;4.19;91.28;100882.67;108751;1258;37486;-77
2023/01/11 08:30:31;;;;;;;28.20;15.70;;;;;;;4.16;91.42;100884.06;108685;1274;172858;-74
2023/01/11 08:33:09;;;;;;;25.90;14.90;;;;;;;4.18;91.54;100882.14;108820;1255;37142;-74
2023/01/11 08:35:43;;;;;;;29.90;16.30;;;;;;;4.22;91.47;100877.31;108805;1274;37417;-76
2023/01/11 08:38:23;;;;;;;30.30;16.20;;;;;;;4.23;91.57;100878.34;108767;1265;36670;-74
2023/01/11 08:40:57;;;;;;;26.60;14.40;;;;;;;4.26;91.38;100873.50;108784;1257;37297;-77
2023/01/11 08:43:34;;;;;;;25.10;14.90;;;;;;;4.23;90.72;100875.25;108732;1259;38938;-76
2023/01/11 08:46:11;;;;;;;31.80;17.30;;;;;;;4.23;90.75;100877.13;108781;1259;37201;-77
2023/01/11 08:48:46;;;;;;;28.40;16.40;;;;;;;4.23;90.68;100870.39;108789;1255;37228;-77
2023/01/11 08:51:24;;;;;;;26.10;14.20;;;;;;;4.27;91.32;100868.30;108800;1274;36982;-78
2023/01/11 08:53:58;;;;;;;25.70;14.60;;;;;;;4.35;91.26;100872.59;108823;1255;36932;-76
2023/01/11 08:56:38;;;;;;;25.10;14.10;;;;;;;4.42;91.10;100871.34;108842;1274;36231;-73
2023/01/11 08:59:14;;;;;;;24.50;14.50;;;;;;;4.48;90.37;100868.89;108761;1265;38563;-74
2023/01/11 09:01:50;;;;;;;27.20;14.60;;;;;;;4.51;90.39;100868.54;108825;1251;37301;-78
2023/01/11 09:04:32;;;;;;;27.50;15.30;;;;;;;4.58;90.35;100868.34;108843;1257;36982;-78
2023/01/11 09:07:10;;;;;;;29.60;16.20;;;;;;;4.59;89.90;100870.39;108667;1264;174492;-74
2023/01/11 09:09:47;;;;;;;27.90;15.20;;;;;;;4.55;89.80;100871.29;108735;1259;174964;-76
2023/01/11 09:12:31;;;;;;;25.50;14.50;;;;;;;4.51;89.58;100866.46;108793;1274;36994;-77
2023/01/11 09:15:09;;;;;;;27.20;15.30;;;;;;;4.51;89.53;100864.73;108786;1256;37146;-73
2023/01/11 09:17:45;;;;;;;25.00;15.00;;;;;;;4.53;89.71;100868.70;108750;1274;38491;-73
2023/01/11 09:20:22;;;;;;;25.20;15.80;;;;;;;4.49;89.20;100863.72;108775;1268;37501;-74
2023/01/11 09:22:58;;;;;;;25.80;14.70;;;;;;;4.46;89.46;100858.55;108781;1274;37207;-75
2023/01/11 09:25:33;;;;;;;23.20;14.30;;;;;;;4.54;89.95;100850.21;108808;1274;37120;-76
2023/01/11 09:28:10;;;;;;;23.90;14.50;;;;;;;4.69;90.19;100841.65;108887;1266;37029;-74
2023/01/11 09:30:44;;;;;;;23.30;13.90;;;;;;;4.82;89.93;100843.81;108835;1259;37140;-76
2023/01/11 09:33:23;;;;;;;22.10;14.00;;;;;;;4.93;89.72;100840.98;108878;1274;36967;-75
2023/01/11 09:35:59;;;;;;;24.40;15.30;;;;;;;4.94;88.58;100836.82;108907;1274;37075;-77
2023/01/11 09:38:38;;;;;;;26.00;15.70;;;;;;;4.89;88.63;100835.12;108841;1253;36972;-78
2023/01/11 09:41:26;;;;;;;27.80;15.60;;;;;;;4.87;88.79;100827.02;108848;1270;37036;-76
2023/01/11 09:44:10;;;;;;;24.00;14.00;;;;;;;4.92;88.89;100827.31;108856;1253;37278;-76
2023/01/11 09:46:51;;;;;;;23.60;14.40;;;;;;;4.94;87.99;100824.88;108886;1251;37474;-76
2023/01/11 09:49:36;;;;;;;24.10;14.60;;;;;;;4.88;87.50;100826.14;108849;1266;37074;-78
2023/01/11 09:52:23;;;;;;;25.10;15.40;;;;;;;4.81;86.86;100825.49;108824;1274;36371;-76
2023/01/11 09:54:58;;;;;;;22.70;13.90;;;;;;;4.74;87.25;100829.87;108846;1270;37386;-74
2023/01/11 09:58:01;;;;;;;22.20;14.00;;;;;;;4.72;87.52;100829.20;108795;1256;37002;-74
2023/01/11 10:00:48;;;;;;;23.30;14.70;;;;;;;4.70;87.18;100827.65;108855;1274;37048;-79
2023/01/11 10:04:02;;;;;;;24.40;14.80;;;;;;;4.67;87.53;100824.20;108863;1256;37133;-76
2023/01/11 10:06:48;;;;;;;23.20;14.30;;;;;;;4.65;87.15;100826.13;108748;1274;37144;-74
2023/01/11 10:09:35;;;;;;;24.50;14.30;;;;;;;4.63;87.69;100826.83;108793;1256;37373;-74
2023/01/11 10:12:22;;;;;;;23.60;15.10;;;;;;;4.59;87.28;100826.34;108792;1274;35984;-74
2023/01/11 10:15:07;;;;;;;24.40;14.90;;;;;;;4.58;87.07;100821.16;108819;1263;36178;-75
2023/01/11 10:17:47;;;;;;;26.60;15.50;;;;;;;4.62;87.75;100818.70;108852;1274;37078;-74
2023/01/11 10:20:27;;;;;;;25.50;15.70;;;;;;;4.64;87.62;100813.00;108886;1255;36807;-78
2023/01/11 10:23:05;;;;;;;25.90;14.70;;;;;;;4.63;87.41;100810.23;108770;1262;37275;-78
2023/01/11 10:25:50;;;;;;;23.80;14.40;;;;;;;4.61;87.26;100806.80;108834;1274;37119;-73
2023/01/11 10:28:34;;;;;;;24.20;14.80;;;;;;;4.65;87.39;100807.11;108792;1274;37058;-74
2023/01/11 10:31:28;;;;;;;25.80;15.70;;;;;;;4.68;87.49;100807.45;108831;1253;37153;-74
2023/01/11 10:34:23;;;;;;;23.30;14.60;;;;;;;4.74;87.98;100807.24;108802;1274;37220;-74
2023/01/11 10:37:25;;;;;;;21.80;14.00;;;;;;;4.76;87.42;100813.09;108708;1268;37625;-74
2023/01/11 10:40:18;;;;;;;;;;;;;;;4.76;86.96;100814.99;108838;1274;37396;-74
2023/01/11 10:42:55;;;;;;;22.00;14.20;;;;;;;4.69;86.51;100812.45;108789;1255;38639;-72
2023/01/11 10:45:38;;;;;;;22.20;14.60;;;;;;;4.70;86.84;100810.20;108818;1274;36282;-73
2023/01/11 10:48:17;;;;;;;22.60;14.80;;;;;;;4.71;86.58;100810.36;108805;1274;37092;-74
2023/01/11 10:51:01;;;;;;;22.70;14.40;;;;;;;4.67;86.36;100805.38;108824;1257;36968;-72
2023/01/11 10:53:39;;;;;;;21.30;14.20;;;;;;;4.62;86.45;100801.61;108741;1257;39931;-73
2023/01/11 10:56:27;;;;;;;23.20;15.40;;;;;;;4.60;86.17;100794.36;108771;1265;38888;-74
2023/01/11 10:59:20;;;;;;;24.30;14.50;;;;;;;4.58;86.58;100788.86;108717;1265;38782;-75
2023/01/11 11:02:08;;;;;;;22.00;13.10;;;;;;;4.60;86.46;100785.04;108750;1260;36732;-73
2023/01/11 11:05:00;;;;;;;21.90;12.90;;;;;;;4.55;86.24;100782.66;108794;1253;36970;-73
2023/01/11 11:07:43;;;;;;;20.60;13.60;;;;;;;4.55;86.64;100778.68;108853;1267;37015;-75
2023/01/11 11:10:23;;;;;;;20.60;13.60;;;;;;;4.64;86.97;100775.16;108845;1274;36613;-75
2023/01/11 11:13:06;;;;;;;22.30;14.50;;;;;;;4.69;86.70;100763.20;108846;1255;37235;-74
2023/01/11 11:15:44;;;;;;;23.70;15.40;;;;;;;4.71;86.68;100752.81;108852;1253;36958;-73
2023/01/11 11:18:19;;;;;;;23.30;14.40;;;;;;;4.73;86.54;100745.70;108778;1274;37065;-75
2023/01/11 11:20:56;;;;;;;19.80;14.20;;;;;;;4.73;86.07;100749.17;108872;1267;37004;-79
2023/01/11 11:23:37;;;;;;;21.80;13.90;;;;;;;4.74;86.21;100747.44;108803;1270;37063;-77
2023/01/11 11:26:12;;;;;;;21.70;13.80;;;;;;;4.74;86.23;100748.31;108835;1257;38333;-78
2023/01/11 11:29:01;;;;;;;24.40;15.00;;;;;;;4.73;85.93;100745.70;108764;1263;36743;-77
2023/01/11 11:31:45;;;;;;;23.60;14.80;;;;;;;4.69;85.97;100735.71;108803;1266;37140;-72
2023/01/11 11:34:21;;;;;;;24.10;14.70;;;;;;;4.69;85.85;100734.52;108788;1251;37179;-73
2023/01/11 11:37:00;;;;;;;18.90;12.90;;;;;;;4.70;86.07;100734.52;108700;1259;36976;-77
2023/01/11 11:39:37;;;;;;;19.90;12.90;;;;;;;4.74;85.88;100728.95;108792;1255;37081;-74
2023/01/11 11:42:22;;;;;;;22.20;14.20;;;;;;;4.73;85.91;100726.70;108787;1258;38553;-75
2023/01/11 11:45:20;;;;;;;20.90;14.40;;;;;;;4.74;85.76;100719.43;108809;1274;37101;-75
2023/01/11 11:48:12;;;;;;;19.10;12.90;;;;;;;4.77;86.00;100721.48;108791;1274;37379;-75
2023/01/11 11:50:47;;;;;;;18.60;12.90;;;;;;;4.82;85.63;100716.08;108810;1274;37111;-76
2023/01/11 11:53:37;;;;;;;21.00;13.60;;;;;;;4.83;85.34;100715.73;108815;1265;36811;-75
2023/01/11 11:56:23;;;;;;;22.00;14.00;;;;;;;4.82;85.21;100712.80;108802;1263;37058;-77
2023/01/11 11:59:10;;;;;;;20.00;13.40;;;;;;;4.80;85.27;100708.84;108704;1275;37319;-77
2023/01/11 12:01:46;;;;;;;18.10;12.70;;;;;;;4.83;85.32;100705.18;108703;1264;187565;-74
2023/01/11 12:04:23;;;;;;;17.10;12.50;;;;;;;4.88;85.34;100701.86;108821;1256;38525;-75
2023/01/11 12:07:19;;;;;;;18.70;13.00;;;;;;;4.91;85.45;100698.86;108763;1258;37206;-74
2023/01/11 12:09:59;;;;;;;17.90;12.70;;;;;;;4.93;84.90;100695.41;108866;1255;36920;-74
2023/01/11 12:12:39;;;;;;;;;;;;;;;4.90;84.95;100690.23;108861;1274;37436;-73
2023/01/11 12:15:25;;;;;;;17.60;12.40;;;;;;;4.80;84.18;100689.30;108862;1251;37136;-73
2023/01/11 12:18:33;;;;;;;19.10;12.80;;;;;;;4.67;83.84;100685.61;108880;1265;36993;-72
2023/01/11 12:21:28;;;;;;;17.40;12.60;;;;;;;4.61;84.39;100678.06;108890;1274;36824;-73
2023/01/11 12:24:18;;;;;;;20.20;14.40;;;;;;;4.63;84.90;100670.98;108885;1257;37251;-71
2023/01/11 12:27:05;;;;;;;20.60;13.90;;;;;;;4.68;84.86;100664.02;108896;1255;38354;-75
2023/01/11 12:29:49;;;;;;;19.80;13.60;;;;;;;4.71;85.13;100663.46;108834;1255;36151;-76